Time;durP1;ratioP1;P1;durP2;ratioP2;P2;SDS_P1;SDS_P2;PMS_P1;PMS_P2;Temp;Humidity;BMP_temperature;BMP_pressure;BME280_temperature;BME280_humidity;BME280_pressure;Samples;Min_cycle;Max_cycle;Signal;HPM_P1;HPM_P2
2022/08/28 00:01:01;;;;;;;1.80;1.60;;;;;;;28.33;46.69;98429.94;2107221;28;20105;-49
2022/08/28 00:02:02;;;;;;;2.50;1.40;;;;;;;28.32;46.62;98433.78;2109003;28;20051;-47
2022/08/28 00:03:05;;;;;;;2.90;1.33;;;;;;;28.32;47.01;98434.59;2109116;28;20139;-49
2022/08/28 00:04:05;;;;;;;1.63;1.02;;;;;;;28.28;46.82;98434.34;2106344;28;20047;-45
2022/08/28 00:05:10;;;;;;;2.20;1.40;;;;;;;28.34;46.94;98437.88;2106646;28;20044;-53
2022/08/28 00:06:11;;;;;;;2.55;1.40;;;;;;;28.33;46.69;98436.22;2104436;28;20040;-47
2022/08/28 00:07:13;;;;;;;2.30;2.05;;;;;;;28.33;46.46;98430.78;2106402;28;20644;-46
2022/08/28 00:08:16;;;;;;;3.08;1.48;;;;;;;28.35;46.72;98427.78;2105794;27;20043;-47
2022/08/28 00:09:18;;;;;;;4.60;1.30;;;;;;;28.35;46.74;98438.69;2107809;28;20071;-48
2022/08/28 00:10:22;;;;;;;2.75;1.83;;;;;;;28.35;46.85;98439.50;2107447;28;20059;-50
2022/08/28 00:11:24;;;;;;;1.95;1.38;;;;;;;28.36;46.87;98438.44;2108846;27;21647;-47
2022/08/28 00:12:26;;;;;;;2.08;1.83;;;;;;;28.35;46.80;98436.78;2106885;27;20044;-50
2022/08/28 00:13:27;;;;;;;3.00;1.50;;;;;;;28.35;46.57;98438.69;2109821;28;20058;-47
2022/08/28 00:14:28;;;;;;;2.13;1.33;;;;;;;28.35;46.36;98435.97;2106718;28;20878;-50
2022/08/28 00:15:33;;;;;;;1.83;1.50;;;;;;;28.30;46.69;98431.31;2108904;27;20052;-49
2022/08/28 00:16:34;;;;;;;3.53;1.30;;;;;;;28.30;46.67;98439.50;2107131;28;20058;-51
2022/08/28 00:17:36;;;;;;;3.25;1.35;;;;;;;28.27;46.50;98431.88;2106486;28;20052;-49
2022/08/28 00:18:38;;;;;;;1.67;1.45;;;;;;;28.25;46.56;98434.88;2107890;28;20048;-47
2022/08/28 00:19:40;;;;;;;1.90;1.70;;;;;;;28.28;46.57;98431.59;2106787;28;20052;-49
2022/08/28 00:20:41;;;;;;;3.22;1.10;;;;;;;28.27;46.61;98429.94;2108543;28;20052;-48
2022/08/28 00:21:44;;;;;;;2.55;1.15;;;;;;;28.26;46.56;98430.25;2107534;27;20529;-46
2022/08/28 00:22:45;;;;;;;3.70;1.60;;;;;;;28.29;46.69;98441.41;2108872;28;20059;-49
2022/08/28 00:23:47;;;;;;;1.55;1.33;;;;;;;28.30;46.51;98436.78;2100322;28;20062;-50
2022/08/28 00:24:49;;;;;;;3.00;1.42;;;;;;;28.31;46.45;98440.34;2105829;27;20044;-48
2022/08/28 00:25:51;;;;;;;1.52;1.20;;;;;;;28.28;46.68;98434.34;2107504;27;20558;-51
2022/08/28 00:28:12;;;;;;;1.42;1.23;;;;;;;28.31;46.56;98448.53;2106017;28;20428;-45
2022/08/28 00:29:13;;;;;;;1.55;1.45;;;;;;;28.32;46.61;98444.69;2107877;28;20131;-45
2022/08/28 00:30:15;;;;;;;1.33;1.08;;;;;;;28.33;46.50;98438.94;2104902;28;20452;-48
2022/08/28 00:31:16;;;;;;;3.53;1.60;;;;;;;28.32;46.57;98440.06;2108494;27;20051;-53
2022/08/28 00:32:22;;;;;;;2.28;1.58;;;;;;;28.32;46.71;98452.88;2105796;28;20509;-50
2022/08/28 00:33:27;;;;;;;1.65;1.20;;;;;;;28.30;46.52;98442.22;2107383;28;20055;-45
2022/08/28 00:34:31;;;;;;;4.70;1.50;;;;;;;28.28;46.61;98444.44;2107426;28;20047;-49
2022/08/28 00:35:32;;;;;;;3.20;2.08;;;;;;;28.27;46.97;98446.31;2109057;28;20123;-48
2022/08/28 00:36:34;;;;;;;5.70;1.88;;;;;;;28.27;46.46;98438.13;2107855;28;20113;-45
2022/08/28 00:37:35;;;;;;;3.55;1.75;;;;;;;28.25;46.73;98444.94;2108452;28;20040;-44
2022/08/28 00:38:36;;;;;;;3.50;1.35;;;;;;;28.26;46.72;98444.69;2106605;28;20048;-49
2022/08/28 00:39:37;;;;;;;1.20;1.02;;;;;;;28.28;46.46;98450.69;2108349;28;20040;-46
2022/08/28 00:40:43;;;;;;;1.92;1.45;;;;;;;28.27;46.64;98449.03;2106666;27;20051;-46
2022/08/28 00:41:44;;;;;;;1.98;1.20;;;;;;;28.28;46.56;98453.41;2109977;27;20686;-50
2022/08/28 00:42:46;;;;;;;3.28;1.30;;;;;;;28.28;46.67;98450.69;2106717;28;20052;-45
2022/08/28 00:43:48;;;;;;;2.40;1.42;;;;;;;28.28;46.39;98456.16;2107020;28;21121;-46
2022/08/28 00:44:50;;;;;;;2.47;1.15;;;;;;;28.28;46.26;98450.69;2106373;28;20055;-47
2022/08/28 00:45:52;;;;;;;1.23;1.13;;;;;;;28.27;46.64;98454.50;2108129;28;20056;-45
2022/08/28 00:46:57;;;;;;;3.03;1.48;;;;;;;28.29;46.30;98463.22;2107585;27;20585;-46
2022/08/28 00:47:58;;;;;;;1.67;1.10;;;;;;;28.26;46.29;98458.31;2107654;28;20127;-50
2022/08/28 00:48:59;;;;;;;3.80;2.13;;;;;;;28.24;46.34;98457.78;2105897;28;20051;-46
2022/08/28 00:50:02;;;;;;;4.80;1.65;;;;;;;28.23;46.43;98458.88;2107571;27;20524;-49
2022/08/28 00:52:26;;;;;;;1.60;1.30;;;;;;;28.22;46.47;98459.13;2106075;28;20048;-49
2022/08/28 00:53:28;;;;;;;1.40;1.00;;;;;;;28.23;46.40;98456.16;2109027;28;20684;-47
2022/08/28 00:54:31;;;;;;;1.42;1.25;;;;;;;28.25;46.03;98456.69;2107038;28;20081;-50
2022/08/28 00:55:33;;;;;;;1.55;1.45;;;;;;;28.27;46.19;98457.22;2105387;28;20185;-48
2022/08/28 00:56:38;;;;;;;1.83;1.10;;;;;;;28.26;46.36;98461.06;2107570;28;20375;-47
2022/08/28 00:57:47;;;;;;;1.48;1.38;;;;;;;28.22;46.72;98454.50;2106383;27;20635;-48
2022/08/28 00:58:50;;;;;;;2.55;1.30;;;;;;;28.20;46.62;98453.97;2108587;28;20139;-46
2022/08/28 00:59:52;;;;;;;2.58;1.50;;;;;;;28.20;46.63;98453.16;2107184;28;20040;-50
2022/08/28 01:00:53;;;;;;;1.85;1.30;;;;;;;28.18;46.63;98450.69;2107278;28;20623;-44
2022/08/28 01:01:57;;;;;;;2.67;1.95;;;;;;;28.17;46.18;98449.06;2107502;28;20041;-50
2022/08/28 01:03:00;;;;;;;1.20;1.10;;;;;;;28.16;46.49;98446.59;2106118;28;20058;-44
2022/08/28 01:04:04;;;;;;;2.70;1.33;;;;;;;28.16;46.23;98441.94;2106935;28;20043;-48
2022/08/28 01:05:08;;;;;;;1.38;1.27;;;;;;;28.16;46.24;98439.22;2106237;28;20048;-51
2022/08/28 01:06:10;;;;;;;2.35;1.30;;;;;;;28.17;46.35;98432.69;2108136;27;20050;-50
2022/08/28 01:07:14;;;;;;;2.28;1.00;;;;;;;28.17;46.37;98432.69;2109596;27;20052;-44
2022/08/28 01:08:15;;;;;;;2.45;1.52;;;;;;;28.18;46.26;98425.31;2105932;28;20096;-48
2022/08/28 01:09:17;;;;;;;2.38;1.48;;;;;;;28.17;46.17;98429.97;2105612;28;20047;-45
2022/08/28 01:10:23;;;;;;;2.13;1.63;;;;;;;28.16;46.23;98433.75;2105900;28;20063;-50
2022/08/28 01:11:24;;;;;;;1.55;1.33;;;;;;;28.19;46.05;98435.13;2106173;28;20062;-46
2022/08/28 01:12:29;;;;;;;2.13;1.40;;;;;;;28.18;46.45;98438.97;2107555;27;20043;-45
2022/08/28 01:13:31;;;;;;;1.40;1.30;;;;;;;28.18;45.88;98437.03;2106489;28;20047;-49
2022/08/28 01:14:35;;;;;;;2.70;1.63;;;;;;;28.17;46.11;98440.88;2105943;28;20044;-47
2022/08/28 01:15:38;;;;;;;2.42;1.20;;;;;;;28.18;46.37;98434.31;2106712;27;20059;-51
2022/08/28 01:16:42;;;;;;;1.27;1.17;;;;;;;28.17;46.34;98437.34;2106742;28;20078;-47
2022/08/28 01:17:48;;;;;;;2.53;1.40;;;;;;;28.16;46.68;98433.75;2108179;28;20489;-45
2022/08/28 01:18:50;;;;;;;2.20;1.20;;;;;;;28.15;45.93;98434.06;2107632;27;20051;-49
2022/08/28 01:19:57;;;;;;;1.77;1.55;;;;;;;28.16;46.33;98424.78;2105864;28;20048;-50
2022/08/28 01:21:07;;;;;;;1.88;1.27;;;;;;;28.14;46.46;98433.22;2107679;28;20040;-48
2022/08/28 01:22:20;;;;;;;3.63;1.27;;;;;;;28.12;46.54;98432.69;2104457;28;20476;-48
2022/08/28 01:23:31;;;;;;;2.53;1.17;;;;;;;28.11;46.29;98430.22;2105626;28;20052;-48
2022/08/28 01:24:35;;;;;;;1.85;1.33;;;;;;;28.12;46.36;98431.88;2106887;28;20093;-47
2022/08/28 01:25:37;;;;;;;3.22;1.33;;;;;;;28.08;46.41;98426.13;2105896;27;20525;-45
2022/08/28 01:26:39;;;;;;;1.63;1.17;;;;;;;28.10;46.22;98431.31;2106871;28;20051;-47
2022/08/28 01:27:41;;;;;;;1.23;1.13;;;;;;;28.11;46.17;98439.22;2106622;27;21406;-48
2022/08/28 01:28:43;;;;;;;1.70;1.02;;;;;;;28.11;46.27;98428.31;2106739;27;20048;-47
2022/08/28 01:29:43;;;;;;;1.90;1.17;;;;;;;28.12;46.12;98435.41;2105392;28;20048;-49
2022/08/28 01:30:47;;;;;;;2.20;1.42;;;;;;;28.12;46.16;98431.88;2107429;28;20054;-46
2022/08/28 01:31:48;;;;;;;1.55;1.20;;;;;;;28.12;46.01;98434.59;2108264;27;20044;-46
2022/08/28 01:32:52;;;;;;;1.42;1.33;;;;;;;28.10;46.30;98437.56;2106497;28;20412;-48
2022/08/28 01:33:53;;;;;;;1.65;1.30;;;;;;;28.09;46.21;98433.22;2106912;28;20046;-47
2022/08/28 01:34:55;;;;;;;1.52;1.00;;;;;;;28.10;46.10;98437.56;2105751;27;20853;-44
2022/08/28 01:35:58;;;;;;;1.33;1.23;;;;;;;28.09;46.85;98429.69;2108886;28;20052;-49
2022/08/28 01:37:00;;;;;;;3.80;1.60;;;;;;;28.11;46.09;98428.31;2104910;27;20138;-46
2022/08/28 01:38:01;;;;;;;2.60;1.40;;;;;;;28.10;46.27;98431.31;2104781;28;20051;-48
2022/08/28 01:39:07;;;;;;;3.28;1.20;;;;;;;28.06;46.11;98425.59;2104158;28;20047;-47
2022/08/28 01:40:13;;;;;;;1.38;1.20;;;;;;;28.06;46.33;98431.84;2105482;28;20044;-47
2022/08/28 01:41:16;;;;;;;1.92;1.52;;;;;;;28.01;46.34;98433.75;2105888;28;20447;-48
2022/08/28 01:42:17;;;;;;;2.58;1.50;;;;;;;28.03;46.44;98428.84;2104477;27;20473;-47
2022/08/28 01:43:21;;;;;;;1.63;1.15;;;;;;;28.01;46.52;98429.13;2107751;28;20123;-47
2022/08/28 01:44:24;;;;;;;0.90;0.90;;;;;;;27.99;46.42;98425.84;2104594;28;20056;-46
2022/08/28 01:45:26;;;;;;;1.15;1.05;;;;;;;27.99;46.02;98430.47;2104839;27;20604;-48
2022/08/28 01:46:27;;;;;;;2.60;1.45;;;;;;;27.99;46.29;98433.19;2105352;28;20048;-50
2022/08/28 01:47:29;;;;;;;3.40;1.40;;;;;;;28.00;46.21;98432.09;2105956;27;20123;-47
2022/08/28 01:48:32;;;;;;;1.13;1.02;;;;;;;28.00;46.25;98432.09;2105426;28;20044;-45
2022/08/28 01:49:34;;;;;;;1.38;1.05;;;;;;;27.99;46.21;98435.94;2103768;28;20529;-49
2022/08/28 01:50:35;;;;;;;1.40;1.17;;;;;;;28.00;46.45;98432.09;2106810;27;20063;-51
2022/08/28 01:51:38;;;;;;;1.48;1.05;;;;;;;27.99;46.35;98422.28;2104129;28;20054;-50
2022/08/28 01:52:39;;;;;;;2.95;1.30;;;;;;;28.01;46.12;98425.56;2105058;28;20039;-46
2022/08/28 01:53:41;;;;;;;5.82;1.75;;;;;;;28.02;46.05;98424.47;2104751;28;20484;-49
2022/08/28 01:54:42;;;;;;;2.63;1.00;;;;;;;28.00;46.13;98432.09;2105021;27;20055;-48
2022/08/28 01:55:46;;;;;;;2.20;1.13;;;;;;;28.02;46.01;98433.47;2104826;28;20047;-51
2022/08/28 01:56:46;;;;;;;3.28;1.05;;;;;;;28.00;46.16;98432.09;2105930;28;20047;-44
2022/08/28 01:57:52;;;;;;;2.58;1.50;;;;;;;28.01;46.16;98422.84;2106460;28;20135;-44
2022/08/28 01:58:57;;;;;;;1.85;1.55;;;;;;;27.99;46.38;98427.75;2105018;28;20059;-45
2022/08/28 01:59:59;;;;;;;4.60;1.25;;;;;;;27.98;46.24;98417.94;2103447;28;20064;-43
2022/08/28 02:01:00;;;;;;;1.08;0.80;;;;;;;27.97;46.55;98424.47;2105710;28;20052;-44
2022/08/28 02:02:02;;;;;;;2.03;1.40;;;;;;;27.98;46.53;98412.50;2106287;28;20119;-44
2022/08/28 02:03:03;;;;;;;1.58;0.88;;;;;;;27.99;46.17;98416.84;2103573;28;20056;-44
2022/08/28 02:04:06;;;;;;;1.00;0.90;;;;;;;28.01;46.05;98417.41;2103864;27;20492;-45
2022/08/28 02:05:08;;;;;;;1.35;1.25;;;;;;;28.00;46.15;98413.03;2110671;28;20048;-44
2022/08/28 02:06:11;;;;;;;1.30;1.20;;;;;;;28.00;46.38;98413.03;2104925;27;20113;-47
2022/08/28 02:07:12;;;;;;;1.48;1.38;;;;;;;28.00;46.21;98421.19;2105506;28;20648;-46
2022/08/28 02:08:14;;;;;;;1.40;1.30;;;;;;;27.99;45.71;98422.28;2102652;27;20455;-44
2022/08/28 02:09:15;;;;;;;1.02;0.90;;;;;;;27.96;46.36;98418.19;2102451;28;20051;-45
2022/08/28 02:10:17;;;;;;;1.80;1.02;;;;;;;27.97;46.11;98425.31;2101649;28;20054;-45
2022/08/28 02:11:22;;;;;;;4.32;1.33;;;;;;;27.96;45.98;98422.84;2101911;27;20056;-45
2022/08/28 02:12:24;;;;;;;1.42;0.95;;;;;;;27.96;46.25;98422.84;2105208;28;20047;-45
2022/08/28 02:13:25;;;;;;;2.38;1.40;;;;;;;27.95;46.08;98426.66;2106479;28;20059;-45
2022/08/28 02:14:27;;;;;;;2.55;1.25;;;;;;;27.92;46.28;98427.22;2103645;28;20095;-45
2022/08/28 02:15:30;;;;;;;0.95;0.95;;;;;;;27.93;46.62;98423.38;2103952;28;20148;-45
2022/08/28 02:16:32;;;;;;;1.25;1.15;;;;;;;27.93;46.31;98420.66;2102186;28;20916;-44
2022/08/28 02:17:33;;;;;;;2.35;1.10;;;;;;;27.91;46.22;98417.38;2104688;28;20655;-45
2022/08/28 02:18:36;;;;;;;1.30;1.20;;;;;;;27.92;46.12;98424.47;2101733;27;20055;-47
2022/08/28 02:19:37;;;;;;;1.13;1.13;;;;;;;27.90;45.97;98419.28;2104119;28;20963;-45
2022/08/28 02:20:39;;;;;;;1.35;1.20;;;;;;;27.92;46.19;98424.47;2102206;28;20048;-44
2022/08/28 02:21:40;;;;;;;3.95;1.27;;;;;;;27.92;46.41;98427.22;2102606;28;20070;-44
2022/08/28 02:22:42;;;;;;;3.97;1.50;;;;;;;27.92;46.26;98424.47;2107559;28;20053;-44
2022/08/28 02:23:43;;;;;;;1.45;1.17;;;;;;;27.91;46.19;98423.63;2101689;28;20048;-46
2022/08/28 02:24:45;;;;;;;2.85;1.33;;;;;;;27.92;46.32;98427.22;2102481;28;20052;-46
2022/08/28 02:25:46;;;;;;;1.50;1.08;;;;;;;27.94;46.36;98427.75;2103727;28;20047;-45
2022/08/28 02:26:49;;;;;;;1.58;1.10;;;;;;;27.96;46.00;98425.56;2105065;28;20054;-45
2022/08/28 02:27:50;;;;;;;2.53;1.90;;;;;;;27.94;46.05;98422.28;2106326;27;20058;-44
2022/08/28 02:28:52;;;;;;;4.75;1.17;;;;;;;27.93;46.26;98426.13;2104090;27;20142;-46
2022/08/28 02:29:54;;;;;;;6.45;1.70;;;;;;;27.92;46.21;98427.22;2103722;28;20051;-46
2022/08/28 02:30:56;;;;;;;1.88;1.40;;;;;;;27.93;46.19;98423.38;2103541;28;20075;-45
2022/08/28 02:31:57;;;;;;;1.77;1.30;;;;;;;27.91;46.06;98422.81;2102926;28;20048;-43
2022/08/28 02:32:58;;;;;;;1.70;1.40;;;;;;;27.91;46.20;98425.56;2103993;28;20040;-45
2022/08/28 02:33:59;;;;;;;2.33;1.27;;;;;;;27.90;46.15;98430.19;2106183;28;20040;-45
2022/08/28 02:35:01;;;;;;;2.03;1.15;;;;;;;27.87;46.13;98430.72;2102142;28;20052;-43
2022/08/28 02:36:03;;;;;;;3.92;1.40;;;;;;;27.87;46.45;98429.91;2101814;28;20055;-45
2022/08/28 02:37:06;;;;;;;5.13;1.20;;;;;;;27.88;46.27;98429.63;2104346;28;20051;-49
2022/08/28 02:38:08;;;;;;;1.25;1.10;;;;;;;27.87;46.44;98421.75;2104255;28;20086;-45
2022/08/28 02:39:10;;;;;;;2.65;1.13;;;;;;;27.88;45.99;98424.19;2104044;28;20062;-45
2022/08/28 02:40:13;;;;;;;1.63;1.23;;;;;;;27.85;46.47;98425.53;2105024;27;20054;-43
2022/08/28 02:41:14;;;;;;;1.27;1.17;;;;;;;27.86;46.39;98420.94;2103904;28;20044;-46
2022/08/28 02:42:17;;;;;;;2.30;1.20;;;;;;;27.86;46.03;98418.22;2102103;28;20048;-44
2022/08/28 02:43:19;;;;;;;1.83;1.10;;;;;;;27.84;46.23;98414.94;2103416;28;20059;-47
2022/08/28 02:44:20;;;;;;;2.63;1.63;;;;;;;27.85;46.22;98409.19;2105673;27;20055;-46
2022/08/28 02:45:22;;;;;;;2.67;0.95;;;;;;;27.86;46.52;98407.31;2102367;28;20055;-46
2022/08/28 02:46:25;;;;;;;1.40;1.30;;;;;;;27.87;46.37;98408.13;2104882;28;20038;-45
2022/08/28 02:47:27;;;;;;;1.35;1.20;;;;;;;27.87;46.43;98402.66;2102925;27;20566;-45
2022/08/28 02:48:29;;;;;;;1.90;1.17;;;;;;;27.87;46.38;98408.13;2106135;28;20048;-43
2022/08/28 02:49:31;;;;;;;1.58;1.40;;;;;;;27.87;46.37;98399.94;2104376;28;20048;-43
2022/08/28 02:50:32;;;;;;;1.25;1.15;;;;;;;27.86;46.23;98407.31;2104139;28;20047;-48
2022/08/28 02:51:34;;;;;;;1.38;1.27;;;;;;;27.84;46.41;98410.28;2102444;28;20056;-45
2022/08/28 02:52:36;;;;;;;1.52;1.20;;;;;;;27.84;46.44;98406.75;2106459;28;20101;-46
2022/08/28 02:53:38;;;;;;;3.03;1.45;;;;;;;27.83;46.32;98407.81;2102967;28;20051;-46
2022/08/28 02:54:39;;;;;;;1.35;1.25;;;;;;;27.86;46.40;98401.84;2103464;27;20055;-47
2022/08/28 02:55:41;;;;;;;1.40;1.30;;;;;;;27.83;46.38;98411.38;2104432;27;20113;-45
2022/08/28 02:56:41;;;;;;;1.08;0.90;;;;;;;27.84;46.37;98399.38;2102920;28;20059;-47
2022/08/28 02:57:45;;;;;;;4.13;1.20;;;;;;;27.84;46.33;98407.56;2102213;28;20059;-46
2022/08/28 02:58:46;;;;;;;4.78;1.40;;;;;;;27.82;46.19;98409.72;2102738;28;20636;-46
2022/08/28 02:59:48;;;;;;;4.20;1.05;;;;;;;27.83;46.14;98407.81;2103158;28;20063;-49
2022/08/28 03:00:50;;;;;;;2.97;1.20;;;;;;;27.82;46.50;98412.44;2107672;28;20048;-49
2022/08/28 03:01:51;;;;;;;1.27;1.15;;;;;;;27.84;46.68;98406.75;2100830;28;20047;-48
2022/08/28 03:02:52;;;;;;;1.80;1.30;;;;;;;27.82;46.72;98407.00;2103864;27;20048;-47
2022/08/28 03:03:54;;;;;;;2.13;1.00;;;;;;;27.84;46.24;98412.19;2103174;28;20043;-50
2022/08/28 03:04:55;;;;;;;2.35;1.58;;;;;;;27.85;46.01;98408.38;2105288;27;20048;-46
2022/08/28 03:05:58;;;;;;;2.65;1.27;;;;;;;27.85;46.14;98409.19;2105527;28;20060;-49
2022/08/28 03:06:59;;;;;;;1.25;1.15;;;;;;;27.84;46.46;98407.56;2102940;28;20128;-44
2022/08/28 03:08:01;;;;;;;1.50;1.10;;;;;;;27.84;46.26;98407.56;2105158;28;20054;-46
2022/08/28 03:09:02;;;;;;;2.08;0.90;;;;;;;27.83;46.20;98408.66;2106599;28;20051;-46
2022/08/28 03:10:07;;;;;;;1.40;1.13;;;;;;;27.82;46.03;98403.47;2101845;28;20040;-46
2022/08/28 03:11:09;;;;;;;1.17;1.08;;;;;;;27.79;46.18;98399.38;2100759;28;20131;-46
2022/08/28 03:12:12;;;;;;;1.60;1.17;;;;;;;27.80;46.29;98397.47;2105263;28;21089;-46
2022/08/28 03:13:16;;;;;;;2.10;1.50;;;;;;;27.80;46.58;98398.31;2106937;28;20043;-46
2022/08/28 03:14:17;;;;;;;2.15;1.20;;;;;;;27.78;46.48;98405.88;2106715;28;20047;-46
2022/08/28 03:15:19;;;;;;;2.10;1.17;;;;;;;27.78;46.50;98396.91;2102562;28;20109;-46
2022/08/28 03:16:20;;;;;;;2.60;1.20;;;;;;;27.79;46.56;98396.66;2102355;28;20062;-46
2022/08/28 03:17:22;;;;;;;2.13;1.40;;;;;;;27.80;46.36;98387.41;2104231;28;20131;-46
2022/08/28 03:18:24;;;;;;;1.90;1.20;;;;;;;27.77;46.51;98393.34;2105869;28;20588;-46
2022/08/28 03:19:26;;;;;;;4.97;1.50;;;;;;;27.78;46.59;98386.81;2102867;28;20076;-45
2022/08/28 03:20:27;;;;;;;3.70;1.38;;;;;;;27.79;46.78;98385.75;2104608;28;20052;-48
2022/08/28 03:21:28;;;;;;;1.50;1.40;;;;;;;27.78;46.67;98386.81;2102202;28;20122;-50
2022/08/28 03:23:48;;;;;;;1.60;1.00;;;;;;;27.76;46.52;98386.25;2105476;28;20052;-46
2022/08/28 03:24:50;;;;;;;2.03;1.30;;;;;;;27.80;46.80;98386.56;2103150;28;20437;-47
2022/08/28 03:25:51;;;;;;;1.42;1.33;;;;;;;27.79;46.48;98384.91;2102956;28;20044;-47
2022/08/28 03:26:53;;;;;;;2.35;1.15;;;;;;;27.79;46.42;98385.75;2103137;28;20119;-49
2022/08/28 03:27:54;;;;;;;1.33;1.15;;;;;;;27.78;46.45;98386.81;2103016;28;20046;-45
2022/08/28 03:28:58;;;;;;;1.38;1.27;;;;;;;27.79;46.37;98383.03;2104252;28;20040;-47
2022/08/28 03:29:58;;;;;;;2.38;0.90;;;;;;;27.80;46.56;98381.94;2102091;28;20052;-47
2022/08/28 03:31:01;;;;;;;2.42;1.20;;;;;;;27.80;46.26;98387.41;2104462;28;20135;-48
2022/08/28 03:32:02;;;;;;;1.50;1.27;;;;;;;27.79;46.35;98377.56;2103230;28;20293;-47
2022/08/28 03:33:04;;;;;;;1.67;1.30;;;;;;;27.82;46.48;98384.38;2104218;28;20056;-45
2022/08/28 03:34:05;;;;;;;2.25;1.25;;;;;;;27.80;46.62;98379.22;2102785;28;20131;-46
2022/08/28 03:35:08;;;;;;;1.58;1.33;;;;;;;27.78;46.67;98381.38;2103994;28;20055;-49
2022/08/28 03:36:12;;;;;;;2.15;1.23;;;;;;;27.79;46.51;98383.03;2104724;28;20055;-47
2022/08/28 03:37:13;;;;;;;1.30;1.20;;;;;;;27.79;46.55;98384.91;2102042;28;20043;-46
2022/08/28 03:38:16;;;;;;;1.30;1.10;;;;;;;27.80;46.70;98387.41;2101694;28;20051;-45
2022/08/28 03:39:17;;;;;;;2.05;1.42;;;;;;;27.77;46.92;98385.16;2102538;28;20044;-46
2022/08/28 03:40:20;;;;;;;4.70;1.35;;;;;;;27.78;46.63;98380.56;2105398;28;20062;-46
2022/08/28 03:41:23;;;;;;;1.35;0.80;;;;;;;27.79;46.49;98382.19;2103361;28;20454;-46
2022/08/28 03:42:25;;;;;;;5.10;1.35;;;;;;;27.76;46.49;98374.53;2102532;28;20044;-48
2022/08/28 03:43:26;;;;;;;3.58;1.30;;;;;;;27.77;46.54;98376.97;2101975;28;20052;-48
2022/08/28 03:44:30;;;;;;;1.65;1.17;;;;;;;27.77;46.80;98378.91;2102324;28;20056;-46
2022/08/28 03:45:31;;;;;;;2.85;1.30;;;;;;;27.77;46.88;98379.72;2106373;27;20099;-45
2022/08/28 03:46:34;;;;;;;1.35;1.25;;;;;;;27.78;46.75;98372.38;2101359;28;20048;-49
2022/08/28 03:47:35;;;;;;;2.17;1.17;;;;;;;27.78;46.44;98375.91;2100965;28;20047;-45
2022/08/28 03:48:37;;;;;;;2.22;0.90;;;;;;;27.76;46.47;98372.63;2102891;28;20139;-46
2022/08/28 03:49:38;;;;;;;4.95;1.50;;;;;;;27.76;46.90;98372.63;2101819;28;20044;-48
2022/08/28 03:50:40;;;;;;;2.22;1.30;;;;;;;27.80;46.77;98371.06;2106830;28;20909;-47
2022/08/28 03:51:42;;;;;;;1.40;1.15;;;;;;;27.78;46.94;98375.09;2104979;28;20076;-46
2022/08/28 03:52:44;;;;;;;1.33;1.02;;;;;;;27.76;47.11;98371.81;2106959;28;20884;-46
2022/08/28 03:53:45;;;;;;;2.03;1.55;;;;;;;27.76;47.02;98375.34;2102874;28;20059;-50
2022/08/28 03:54:48;;;;;;;2.22;1.80;;;;;;;27.77;46.79;98378.91;2103498;28;20047;-48
2022/08/28 03:55:49;;;;;;;2.53;1.42;;;;;;;27.75;47.00;98376.47;2102634;28;20085;-47
2022/08/28 03:56:51;;;;;;;1.33;1.10;;;;;;;27.77;47.00;98376.97;2102410;28;20127;-47
2022/08/28 03:57:52;;;;;;;1.83;1.35;;;;;;;27.76;47.23;98375.34;2103208;28;20101;-47
2022/08/28 03:58:57;;;;;;;1.30;1.20;;;;;;;27.78;46.75;98375.09;2103942;28;20425;-46
2022/08/28 04:00:00;;;;;;;1.20;1.10;;;;;;;27.76;46.98;98375.34;2104384;28;20135;-48
2022/08/28 04:01:02;;;;;;;2.25;1.42;;;;;;;27.75;47.10;98372.88;2101634;28;20131;-46
2022/08/28 04:02:02;;;;;;;1.48;1.30;;;;;;;27.74;46.90;98372.06;2102073;28;20274;-45
2022/08/28 04:03:04;;;;;;;1.35;1.13;;;;;;;27.75;46.96;98375.63;2105125;28;20553;-46
2022/08/28 04:04:06;;;;;;;2.35;1.52;;;;;;;27.73;47.14;98372.38;2103719;28;20100;-45
2022/08/28 04:05:08;;;;;;;1.58;1.30;;;;;;;27.73;46.96;98370.44;2103980;28;20509;-47
2022/08/28 04:06:11;;;;;;;1.63;1.52;;;;;;;27.71;47.18;98375.34;2104056;28;20087;-46
2022/08/28 04:07:12;;;;;;;1.10;1.00;;;;;;;27.71;46.90;98372.63;2102689;28;20058;-46
2022/08/28 04:08:17;;;;;;;3.17;1.30;;;;;;;27.73;47.18;98377.81;2103305;28;20566;-46
2022/08/28 04:09:17;;;;;;;1.30;1.20;;;;;;;27.73;46.92;98378.63;2105265;28;20058;-47
2022/08/28 04:10:19;;;;;;;1.08;0.90;;;;;;;27.71;46.97;98386.25;2104097;28;20058;-46
2022/08/28 04:11:20;;;;;;;3.25;1.50;;;;;;;27.70;47.11;98387.34;2103886;28;20073;-47
2022/08/28 04:12:22;;;;;;;2.08;1.42;;;;;;;27.72;47.00;98387.91;2107863;28;20081;-46
2022/08/28 04:13:23;;;;;;;1.52;1.27;;;;;;;27.72;47.22;98385.19;2102580;28;20048;-49
2022/08/28 04:14:25;;;;;;;2.15;1.58;;;;;;;27.73;47.04;98388.72;2103001;28;21605;-49
2022/08/28 04:15:28;;;;;;;2.50;1.05;;;;;;;27.75;46.96;98375.63;2104028;28;20048;-45
2022/08/28 04:16:30;;;;;;;2.92;1.70;;;;;;;27.73;46.83;98388.72;2103414;28;20092;-47
2022/08/28 04:17:31;;;;;;;1.90;1.15;;;;;;;27.72;47.01;98392.50;2103360;28;20048;-47
2022/08/28 04:18:33;;;;;;;3.60;1.67;;;;;;;27.73;46.90;98389.53;2104296;28;20155;-46
2022/08/28 04:19:34;;;;;;;1.50;1.30;;;;;;;27.70;47.23;98390.06;2101912;28;20048;-46
2022/08/28 04:20:37;;;;;;;1.95;1.40;;;;;;;27.70;47.11;98384.63;2104936;28;20046;-46
2022/08/28 04:21:38;;;;;;;4.40;1.40;;;;;;;27.71;46.80;98386.25;2101853;28;20056;-47
2022/08/28 04:22:40;;;;;;;3.40;1.48;;;;;;;27.70;47.06;98394.69;2105813;28;20052;-46
2022/08/28 04:23:42;;;;;;;1.40;1.25;;;;;;;27.70;47.19;98390.06;2104518;27;20501;-45
2022/08/28 04:24:44;;;;;;;1.70;1.10;;;;;;;27.70;46.98;98400.16;2103487;28;20489;-46
2022/08/28 04:25:45;;;;;;;3.08;1.20;;;;;;;27.69;47.03;98393.84;2104879;28;20056;-46
2022/08/28 04:26:47;;;;;;;2.45;1.58;;;;;;;27.71;47.19;98397.13;2105190;27;20055;-47
2022/08/28 04:27:49;;;;;;;2.90;1.17;;;;;;;27.71;47.23;98401.78;2104267;28;20639;-46
2022/08/28 04:28:53;;;;;;;2.47;1.48;;;;;;;27.73;47.05;98399.63;2107593;27;20053;-45
2022/08/28 04:29:54;;;;;;;1.98;1.45;;;;;;;27.71;46.85;98401.78;2103552;28;20082;-48
2022/08/28 04:30:57;;;;;;;1.63;1.23;;;;;;;27.74;46.95;98406.69;2105102;28;20656;-47
2022/08/28 04:31:58;;;;;;;2.67;1.25;;;;;;;27.72;46.94;98403.41;2103572;28;20052;-46
2022/08/28 04:33:00;;;;;;;2.78;1.35;;;;;;;27.72;46.82;98409.69;2105473;27;20471;-48
2022/08/28 04:34:03;;;;;;;1.92;1.52;;;;;;;27.72;47.01;98411.56;2105610;28;20052;-46
2022/08/28 04:35:08;;;;;;;4.10;1.20;;;;;;;27.72;46.83;98412.41;2103030;27;20052;-54
2022/08/28 04:36:11;;;;;;;4.28;1.33;;;;;;;27.69;47.16;98420.28;2103582;27;20040;-49
2022/08/28 04:37:12;;;;;;;4.28;1.38;;;;;;;27.70;47.02;98414.59;2105702;27;20086;-46
2022/08/28 04:38:13;;;;;;;3.22;1.20;;;;;;;27.70;47.22;98417.31;2107687;27;20082;-48
2022/08/28 04:39:15;;;;;;;3.13;1.33;;;;;;;27.69;47.38;98420.28;2107596;28;20044;-48
2022/08/28 04:40:18;;;;;;;1.40;1.30;;;;;;;27.67;47.30;98417.84;2104141;28;20995;-47
2022/08/28 04:41:19;;;;;;;2.97;1.50;;;;;;;27.69;46.85;98429.28;2108537;27;20083;-46
2022/08/28 04:42:20;;;;;;;0.98;0.88;;;;;;;27.70;46.80;98425.50;2107322;28;20528;-45
2022/08/28 04:43:22;;;;;;;4.60;1.52;;;;;;;27.67;47.11;98436.94;2105274;27;20126;-47
2022/08/28 04:44:23;;;;;;;3.17;1.35;;;;;;;27.68;47.31;98432.28;2103641;28;20143;-46
2022/08/28 04:45:25;;;;;;;1.38;1.27;;;;;;;27.66;47.02;98434.47;2103908;27;20068;-46
2022/08/28 04:46:27;;;;;;;2.88;1.60;;;;;;;27.67;47.16;98434.19;2105887;28;20047;-45
2022/08/28 04:47:29;;;;;;;1.25;1.00;;;;;;;27.65;47.31;98436.38;2106466;28;20060;-48
2022/08/28 04:48:30;;;;;;;2.03;1.48;;;;;;;27.66;47.08;98442.63;2106080;28;20875;-46
2022/08/28 04:49:32;;;;;;;3.17;1.20;;;;;;;27.66;47.03;98442.63;2105072;28;20067;-46
2022/08/28 04:50:33;;;;;;;3.13;1.17;;;;;;;27.65;47.06;98443.72;2103490;28;20047;-47
2022/08/28 04:51:35;;;;;;;1.50;1.30;;;;;;;27.67;47.03;98445.09;2106215;28;20122;-47
2022/08/28 04:52:36;;;;;;;1.92;1.52;;;;;;;27.67;47.03;98441.56;2103463;27;20039;-47
2022/08/28 04:53:39;;;;;;;1.65;1.15;;;;;;;27.68;46.96;98445.91;2106529;28;20527;-47
2022/08/28 04:54:40;;;;;;;2.50;2.10;;;;;;;27.66;47.07;98446.16;2106006;27;20044;-48
2022/08/28 04:55:42;;;;;;;1.92;1.58;;;;;;;27.66;47.20;98445.34;2108541;28;20134;-46
2022/08/28 04:56:43;;;;;;;4.20;1.40;;;;;;;27.67;46.92;98453.28;2103680;28;20367;-47
2022/08/28 04:57:45;;;;;;;1.67;1.35;;;;;;;27.68;47.11;98454.09;2108622;28;20096;-46